createdAt,value
2022-09-11T00:01:55.699Z,14.32
2022-09-11T00:04:26.790Z,14.32
2022-09-11T00:06:55.043Z,14.30
2022-09-11T00:09:23.359Z,14.30
2022-09-11T00:11:51.672Z,14.31
2022-09-11T00:14:20.634Z,14.31
2022-09-11T00:16:48.926Z,14.32
2022-09-11T00:19:20.089Z,14.33
2022-09-11T00:21:52.218Z,14.34
2022-09-11T00:24:20.579Z,14.34
2022-09-11T00:26:49.005Z,14.35
2022-09-11T00:29:17.854Z,14.36
2022-09-11T00:31:46.195Z,14.36
2022-09-11T00:34:14.800Z,14.37
2022-09-11T00:36:43.813Z,14.38
2022-09-11T00:39:14.358Z,14.38
2022-09-11T00:41:46.233Z,14.37
2022-09-11T00:44:17.917Z,14.36
2022-09-11T00:46:55.950Z,14.36
2022-09-11T00:49:32.749Z,14.35
2022-09-11T00:53:07.620Z,14.37
2022-09-11T00:56:12.440Z,14.37
2022-09-11T00:59:03.571Z,14.38
2022-09-11T01:01:48.451Z,14.39
2022-09-11T01:04:33.619Z,14.40
2022-09-11T01:07:31.295Z,14.41
2022-09-11T01:10:47.901Z,14.41
2022-09-11T01:14:02.919Z,14.43
2022-09-11T01:17:58.728Z,14.44
2022-09-11T01:21:34.581Z,14.44
2022-09-11T01:25:23.859Z,14.46
2022-09-11T01:28:01.145Z,14.48
2022-09-11T01:31:29.540Z,14.49
2022-09-11T01:34:51.283Z,14.49
2022-09-11T01:37:56.025Z,14.48
2022-09-11T01:40:53.592Z,14.47
2022-09-11T01:43:46.192Z,14.46
2022-09-11T01:46:22.987Z,14.45
2022-09-11T01:49:24.072Z,14.44
2022-09-11T01:52:15.858Z,14.44
2022-09-11T01:58:37.683Z,14.44
2022-09-11T02:01:30.398Z,14.44
2022-09-11T02:04:58.513Z,14.44
2022-09-11T02:08:21.405Z,14.44
2022-09-11T02:11:21.300Z,14.45
2022-09-11T02:16:52.379Z,14.47
2022-09-11T02:19:57.317Z,14.49
2022-09-11T02:22:26.679Z,14.50
2022-09-11T02:24:55.776Z,14.51
2022-09-11T02:27:27.541Z,14.51
2022-09-11T02:29:56.088Z,14.52
2022-09-11T02:32:26.919Z,14.52
2022-09-11T02:34:56.416Z,14.52
2022-09-11T02:37:51.579Z,14.52
2022-09-11T02:44:14.125Z,14.49
2022-09-11T02:47:15.874Z,14.48
2022-09-11T02:53:25.819Z,14.43
2022-09-11T02:56:27.783Z,14.42
2022-09-11T02:59:22.319Z,14.39
2022-09-11T03:01:56.573Z,14.35
2022-09-11T03:04:41.179Z,14.33
2022-09-11T03:07:38.980Z,14.31
2022-09-11T03:10:11.240Z,14.29
2022-09-11T03:12:40.135Z,14.28
2022-09-11T03:15:11.482Z,14.27
2022-09-11T03:17:44.168Z,14.26
2022-09-11T03:20:12.673Z,14.24
2022-09-11T03:22:41.087Z,14.23
2022-09-11T03:25:11.917Z,14.22
2022-09-11T03:27:40.559Z,14.20
2022-09-11T03:30:10.351Z,14.20
2022-09-11T03:32:38.729Z,14.20
2022-09-11T03:35:07.365Z,14.20
2022-09-11T03:37:37.851Z,14.21
2022-09-11T03:40:07.687Z,14.20
2022-09-11T03:42:36.118Z,14.20
2022-09-11T03:45:05.415Z,14.20
2022-09-11T03:47:34.025Z,14.20
2022-09-11T03:50:02.423Z,14.19
2022-09-11T03:52:33.239Z,14.19
2022-09-11T03:55:02.515Z,14.20
2022-09-11T03:57:34.348Z,14.21
2022-09-11T04:00:05.401Z,14.21
2022-09-11T04:02:33.753Z,14.21
2022-09-11T04:05:03.730Z,14.22
2022-09-11T04:07:32.054Z,14.23
2022-09-11T04:10:01.040Z,14.22
2022-09-11T04:12:29.345Z,14.23
2022-09-11T04:14:57.643Z,14.22
2022-09-11T04:17:26.007Z,14.21
2022-09-11T04:19:54.427Z,14.20
2022-09-11T04:22:24.312Z,14.19
2022-09-11T04:24:52.655Z,14.18
2022-09-11T04:27:23.468Z,14.17
2022-09-11T04:29:52.059Z,14.16
2022-09-11T04:32:20.336Z,14.17
2022-09-11T04:34:48.626Z,14.17
2022-09-11T04:37:17.113Z,14.17
2022-09-11T04:39:45.566Z,14.18
2022-09-11T04:42:13.901Z,14.18
2022-09-11T04:44:42.719Z,14.17
2022-09-11T04:47:10.982Z,14.19
2022-09-11T04:49:39.873Z,14.20
2022-09-11T04:52:08.185Z,14.21
2022-09-11T04:54:37.671Z,14.22
2022-09-11T04:57:05.968Z,14.22
2022-09-11T04:59:34.358Z,14.23
2022-09-11T05:02:03.659Z,14.25
2022-09-11T05:04:32.557Z,14.27
2022-09-11T05:07:05.885Z,14.29
2022-09-11T05:09:38.143Z,14.31
2022-09-11T05:12:06.513Z,14.33
2022-09-11T05:14:35.838Z,14.35
2022-09-11T05:17:04.810Z,14.38
2022-09-11T05:19:33.068Z,14.40
2022-09-11T05:22:01.603Z,14.42
2022-09-11T05:24:29.973Z,14.44
2022-09-11T05:27:01.599Z,14.46
2022-09-11T05:29:32.518Z,14.49
2022-09-11T05:32:03.259Z,14.50
2022-09-11T05:34:31.512Z,14.53
2022-09-11T05:37:02.295Z,14.55
2022-09-11T05:39:32.666Z,14.58
2022-09-11T05:42:00.999Z,14.58
2022-09-11T05:44:31.347Z,14.61
2022-09-11T05:46:59.774Z,14.63
2022-09-11T05:49:28.093Z,14.64
2022-09-11T05:51:56.447Z,14.65
2022-09-11T05:54:25.624Z,14.68
2022-09-11T05:56:55.433Z,14.70
2022-09-11T05:59:23.748Z,14.73
2022-09-11T06:01:52.074Z,14.76
2022-09-11T06:04:37.840Z,14.80
2022-09-11T06:07:06.259Z,14.84
2022-09-11T06:09:34.624Z,14.88
2022-09-11T06:12:03.334Z,14.94
2022-09-11T06:14:52.041Z,14.99
2022-09-11T06:17:21.398Z,15.03
2022-09-11T06:19:49.675Z,15.08
2022-09-11T06:22:18.359Z,15.11
2022-09-11T06:24:48.353Z,15.14
2022-09-11T06:27:18.123Z,15.18
2022-09-11T06:29:46.392Z,15.21
2022-09-11T06:32:15.566Z,15.25
2022-09-11T06:34:47.215Z,15.28
2022-09-11T06:37:15.501Z,15.33
2022-09-11T06:39:48.165Z,15.37
2022-09-11T06:42:16.864Z,15.41
2022-09-11T06:44:50.525Z,15.42
2022-09-11T06:47:19.227Z,15.44
2022-09-11T06:49:47.960Z,15.44
2022-09-11T06:58:27.351Z,15.47
2022-09-11T07:01:07.511Z,15.48
2022-09-11T07:03:40.961Z,15.50
2022-09-11T07:06:14.889Z,15.51
2022-09-11T07:08:44.072Z,15.53
2022-09-11T07:11:12.925Z,15.56
2022-09-11T07:13:42.092Z,15.57
2022-09-11T07:16:13.178Z,15.58
2022-09-11T07:18:45.352Z,15.58
2022-09-11T07:21:17.395Z,15.59
2022-09-11T07:23:56.509Z,15.59
2022-09-11T07:26:31.230Z,15.59
2022-09-11T07:29:00.223Z,15.60
2022-09-11T07:31:32.986Z,15.60
2022-09-11T07:34:04.874Z,15.60
2022-09-11T07:36:37.478Z,15.61
2022-09-11T07:39:05.849Z,15.64
2022-09-11T07:41:38.273Z,15.65
2022-09-11T07:44:07.277Z,15.69
2022-09-11T07:46:35.898Z,15.76
2022-09-11T07:49:04.254Z,15.82
2022-09-11T07:51:33.359Z,15.89
2022-09-11T07:54:01.700Z,15.94
2022-09-11T07:56:31.329Z,15.98
2022-09-11T07:59:02.037Z,16.05
2022-09-11T08:01:31.227Z,16.08
2022-09-11T08:07:31.040Z,16.25
2022-09-11T08:10:27.202Z,16.34
2022-09-11T08:13:25.215Z,16.44
2022-09-11T08:15:53.999Z,16.48
2022-09-11T08:18:38.618Z,16.50
2022-09-11T08:21:39.318Z,16.55
2022-09-11T08:28:21.806Z,16.76
2022-09-11T08:31:06.286Z,16.83
2022-09-11T08:33:40.794Z,16.92
2022-09-11T08:36:32.722Z,17.05
2022-09-11T08:39:22.613Z,17.24
2022-09-11T08:42:28.371Z,17.46
2022-09-11T08:45:18.476Z,17.68
2022-09-11T08:48:09.287Z,17.82
2022-09-11T08:51:13.557Z,17.97
2022-09-11T08:54:00.831Z,18.15
2022-09-11T08:57:28.946Z,18.31
2022-09-11T09:00:57.575Z,18.51
2022-09-11T09:04:39.053Z,18.66
2022-09-11T09:07:42.004Z,18.78
2022-09-11T09:10:54.628Z,18.82
2022-09-11T09:17:20.170Z,18.60
2022-09-11T09:20:29.535Z,18.44
2022-09-11T09:23:07.107Z,18.29
2022-09-11T09:25:40.551Z,18.25
2022-09-11T09:28:24.726Z,18.28
2022-09-11T09:31:01.975Z,18.31
2022-09-11T09:33:38.553Z,18.34
2022-09-11T09:36:29.993Z,18.37
2022-09-11T09:38:59.804Z,18.44
2022-09-11T09:41:49.837Z,18.54
2022-09-11T09:45:19.226Z,18.55
2022-09-11T09:47:49.129Z,18.46
2022-09-11T09:50:28.471Z,18.40
2022-09-11T09:53:10.670Z,18.34
2022-09-11T09:55:41.132Z,18.29
2022-09-11T09:58:13.205Z,18.26
2022-09-11T10:00:42.108Z,18.18
2022-09-11T10:03:28.789Z,18.17
2022-09-11T10:06:00.299Z,18.17
2022-09-11T10:08:35.804Z,18.15
2022-09-11T10:11:10.970Z,18.17
2022-09-11T10:13:52.575Z,18.23
2022-09-11T10:16:22.691Z,18.33
2022-09-11T10:18:52.974Z,18.45
2022-09-11T10:21:29.542Z,18.63
2022-09-11T10:24:00.568Z,18.81
2022-09-11T10:26:46.227Z,18.96
2022-09-11T10:29:29.960Z,19.11
2022-09-11T10:32:03.760Z,19.32
2022-09-11T10:34:41.143Z,19.43
2022-09-11T10:37:15.430Z,19.40
2022-09-11T10:39:47.068Z,19.28
2022-09-11T10:42:30.441Z,19.15
2022-09-11T10:45:16.119Z,19.06
2022-09-11T10:47:48.537Z,19.04
2022-09-11T10:50:20.289Z,19.07
2022-09-11T10:53:03.436Z,19.20
2022-09-11T10:55:40.914Z,19.49
2022-09-11T10:58:28.213Z,19.73
2022-09-11T11:00:57.020Z,19.83
2022-09-11T11:03:28.410Z,19.85
2022-09-11T11:06:21.582Z,19.88
2022-09-11T11:09:36.267Z,20.00
2022-09-11T11:12:11.441Z,20.16
2022-09-11T11:18:12.082Z,20.09
2022-09-11T11:21:20.177Z,20.04
2022-09-11T11:30:20.929Z,19.93
2022-09-11T11:33:31.561Z,19.81
2022-09-11T11:36:22.186Z,19.73
2022-09-11T11:39:20.643Z,19.64
2022-09-11T11:42:03.292Z,19.52
2022-09-11T11:47:42.567Z,19.39
2022-09-11T11:50:31.825Z,19.33
2022-09-11T11:53:35.795Z,19.34
2022-09-11T11:56:37.287Z,19.41
2022-09-11T11:59:40.149Z,19.61
2022-09-11T12:02:11.677Z,19.92
2022-09-11T12:05:02.134Z,20.32
2022-09-11T12:07:39.315Z,20.76
2022-09-11T12:10:21.701Z,20.99
2022-09-11T12:12:58.582Z,20.86
2022-09-11T12:15:32.082Z,20.73
2022-09-11T12:18:35.065Z,20.55
2022-09-11T12:21:25.109Z,20.26
2022-09-11T12:23:53.441Z,20.04
2022-09-11T12:26:23.895Z,19.85
2022-09-11T12:29:20.215Z,19.66
2022-09-11T12:31:51.229Z,19.46
2022-09-11T12:34:26.040Z,19.21
2022-09-11T12:37:03.645Z,18.99
2022-09-11T12:39:55.453Z,18.76
2022-09-11T12:42:23.778Z,18.52
2022-09-11T12:44:52.288Z,18.30
2022-09-11T12:47:38.669Z,18.10
2022-09-11T12:50:23.016Z,17.92
2022-09-11T12:53:02.231Z,17.84
2022-09-11T12:55:57.102Z,17.93
2022-09-11T12:58:34.054Z,18.23
2022-09-11T13:01:13.628Z,18.46
2022-09-11T13:04:01.404Z,18.65
2022-09-11T13:06:56.254Z,18.74
2022-09-11T13:09:29.268Z,18.73
2022-09-11T13:12:18.138Z,18.72
2022-09-11T13:14:56.180Z,18.72
2022-09-11T13:17:49.955Z,18.71
2022-09-11T13:20:24.013Z,18.73
2022-09-11T13:22:58.243Z,18.77
2022-09-11T13:25:28.126Z,18.84
2022-09-11T13:28:03.598Z,18.95
2022-09-11T13:30:35.205Z,19.03
2022-09-11T13:33:22.254Z,19.13
2022-09-11T13:35:51.645Z,19.20
2022-09-11T13:38:42.324Z,19.24
2022-09-11T13:41:18.294Z,19.32
2022-09-11T13:43:56.317Z,19.66
2022-09-11T13:46:30.516Z,20.08
2022-09-11T13:49:11.014Z,20.60
2022-09-11T13:51:47.943Z,21.16
2022-09-11T13:54:28.931Z,21.65
2022-09-11T13:56:57.234Z,21.97
2022-09-11T13:59:44.683Z,21.98
2022-09-11T14:02:34.833Z,21.69
2022-09-11T14:05:31.843Z,21.43
2022-09-11T14:08:07.681Z,21.18
2022-09-11T14:10:42.041Z,21.35
2022-09-11T14:13:29.302Z,21.95
2022-09-11T14:16:10.644Z,22.56
2022-09-11T14:19:01.065Z,23.17
2022-09-11T14:21:39.116Z,23.65
2022-09-11T14:24:52.131Z,24.12
2022-09-11T14:27:32.873Z,23.97
2022-09-11T14:30:01.213Z,23.48
2022-09-11T14:32:39.107Z,22.96
2022-09-11T14:35:10.438Z,22.45
2022-09-11T14:37:45.794Z,21.93
2022-09-11T14:40:17.976Z,21.49
2022-09-11T14:42:47.827Z,21.14
2022-09-11T14:45:24.570Z,20.95
2022-09-11T14:47:56.450Z,20.80
2022-09-11T14:50:27.989Z,20.64
2022-09-11T14:52:57.482Z,20.43
2022-09-11T14:55:28.823Z,20.20
2022-09-11T14:57:59.324Z,19.98
2022-09-11T15:00:31.265Z,19.82
2022-09-11T15:03:01.728Z,19.70
2022-09-11T15:05:33.808Z,19.69
2022-09-11T15:08:05.638Z,19.72
2022-09-11T15:10:37.257Z,19.67
2022-09-11T15:13:08.192Z,19.58
2022-09-11T15:15:39.939Z,19.45
2022-09-11T15:18:11.016Z,19.33
2022-09-11T15:24:01.770Z,19.20
2022-09-11T15:26:33.939Z,19.11
2022-09-11T15:29:10.088Z,19.09
2022-09-11T15:31:42.036Z,19.06
2022-09-11T15:34:16.505Z,19.03
2022-09-11T15:36:47.619Z,18.96
2022-09-11T15:39:23.509Z,18.90
2022-09-11T15:41:54.617Z,18.78
2022-09-11T15:44:27.112Z,18.68
2022-09-11T15:46:58.506Z,18.60
2022-09-11T15:49:29.487Z,18.49
2022-09-11T15:52:00.395Z,18.40
2022-09-11T15:54:29.931Z,18.30
2022-09-11T15:57:01.302Z,18.21
2022-09-11T15:59:29.743Z,18.12
2022-09-11T16:01:59.957Z,18.04
2022-09-11T16:04:32.143Z,17.95
2022-09-11T16:07:04.120Z,17.88
2022-09-11T16:09:36.208Z,17.82
2022-09-11T16:12:07.499Z,17.77
2022-09-11T16:14:38.467Z,17.70
2022-09-11T16:17:15.579Z,17.65
2022-09-11T16:19:47.198Z,17.60
2022-09-11T16:22:18.522Z,17.55
2022-09-11T16:24:49.742Z,17.49
2022-09-11T16:27:20.776Z,17.44
2022-09-11T16:30:20.660Z,17.38
2022-09-11T16:32:40.646Z,17.34
2022-09-11T16:35:13.456Z,17.29
2022-09-11T16:37:44.953Z,17.24
2022-09-11T16:40:15.054Z,17.21
2022-09-11T16:42:45.241Z,17.17
2022-09-11T16:45:16.784Z,17.14
2022-09-11T16:47:47.792Z,17.12
2022-09-11T16:50:17.755Z,17.10
2022-09-11T16:52:47.875Z,17.08
2022-09-11T16:55:19.581Z,17.07
2022-09-11T16:57:47.973Z,17.03
2022-09-11T17:00:16.515Z,17.00
2022-09-11T17:02:45.694Z,16.98
2022-09-11T17:05:14.144Z,16.95
2022-09-11T17:07:42.431Z,16.93
2022-09-11T17:10:10.766Z,16.91
2022-09-11T17:12:39.193Z,16.89
2022-09-11T17:15:08.563Z,16.87
2022-09-11T17:17:37.978Z,16.84
2022-09-11T17:20:09.380Z,16.82
2022-09-11T17:22:39.950Z,16.81
2022-09-11T17:25:08.957Z,16.82
2022-09-11T17:27:37.416Z,16.82
2022-09-11T17:30:06.707Z,16.82
2022-09-11T17:32:34.964Z,16.82
2022-09-11T17:35:03.546Z,16.81
2022-09-11T17:37:34.227Z,16.81
2022-09-11T17:40:04.214Z,16.80
2022-09-11T17:42:33.523Z,16.80
2022-09-11T17:45:02.675Z,16.79
2022-09-11T17:47:33.959Z,16.78
2022-09-11T17:50:02.464Z,16.76
2022-09-11T17:52:32.131Z,16.75
2022-09-11T17:55:00.518Z,16.74
2022-09-11T17:57:30.598Z,16.73
2022-09-11T17:59:59.551Z,16.71
2022-09-11T18:02:27.864Z,16.70
2022-09-11T18:04:56.385Z,16.69
2022-09-11T18:07:25.027Z,16.67
2022-09-11T18:09:56.419Z,16.66
2022-09-11T18:12:26.656Z,16.63
2022-09-11T18:14:57.013Z,16.60
2022-09-11T18:17:25.367Z,16.57
2022-09-11T18:19:53.706Z,16.54
2022-09-11T18:22:23.227Z,16.51
2022-09-11T18:24:51.551Z,16.46
2022-09-11T18:27:22.773Z,16.42
2022-09-11T18:29:51.157Z,16.39
2022-09-11T18:32:20.099Z,16.34
2022-09-11T18:34:48.546Z,16.29
2022-09-11T18:37:17.463Z,16.24
2022-09-11T18:39:46.961Z,16.19
2022-09-11T18:42:16.374Z,16.14
2022-09-11T18:44:44.678Z,16.10
2022-09-11T18:47:13.213Z,16.05
2022-09-11T18:49:41.930Z,15.99
2022-09-11T18:52:10.836Z,15.96
2022-09-11T18:54:39.435Z,15.93
2022-09-11T18:57:09.003Z,15.88
2022-09-11T18:59:37.654Z,15.86
2022-09-11T19:02:06.801Z,15.84
2022-09-11T19:04:35.514Z,15.82
2022-09-11T19:07:05.025Z,15.82
2022-09-11T19:09:33.407Z,15.82
2022-09-11T19:12:03.536Z,15.82
2022-09-11T19:14:32.931Z,15.83
2022-09-11T19:17:01.765Z,15.83
2022-09-11T19:19:30.132Z,15.83
2022-09-11T19:22:00.226Z,15.84
2022-09-11T19:24:30.086Z,15.85
2022-09-11T19:27:00.232Z,15.86
2022-09-11T19:29:28.794Z,15.85
2022-09-11T19:31:57.256Z,15.85
2022-09-11T19:34:25.964Z,15.85
2022-09-11T19:36:54.300Z,15.85
2022-09-11T19:39:23.254Z,15.83
2022-09-11T19:41:51.982Z,15.82
2022-09-11T19:44:20.854Z,15.81
2022-09-11T19:46:53.386Z,15.79
2022-09-11T19:49:21.924Z,15.76
2022-09-11T19:51:53.244Z,15.72
2022-09-11T19:54:22.990Z,15.68
2022-09-11T19:56:51.782Z,15.64
2022-09-11T19:59:20.333Z,15.60
2022-09-11T20:01:48.664Z,15.57
2022-09-11T20:04:19.090Z,15.54
2022-09-11T20:09:32.038Z,15.49
2022-09-11T20:12:01.499Z,15.46
2022-09-11T20:14:31.153Z,15.45
2022-09-11T20:17:01.065Z,15.44
2022-09-11T20:19:29.651Z,15.41
2022-09-11T20:21:57.992Z,15.40
2022-09-11T20:24:26.493Z,15.39
2022-09-11T20:26:55.076Z,15.39
2022-09-11T20:29:23.503Z,15.39
2022-09-11T20:31:54.022Z,15.38
2022-09-11T20:34:24.577Z,15.37
2022-09-11T20:36:52.909Z,15.35
2022-09-11T20:39:21.653Z,15.33
2022-09-11T20:41:50.560Z,15.32
2022-09-11T20:44:18.875Z,15.31
2022-09-11T20:46:50.199Z,15.31
2022-09-11T20:49:18.500Z,15.32
2022-09-11T20:51:46.807Z,15.33
2022-09-11T20:54:15.403Z,15.34
2022-09-11T20:56:44.544Z,15.35
2022-09-11T20:59:12.927Z,15.36
2022-09-11T21:01:41.238Z,15.38
2022-09-11T21:04:10.084Z,15.39
2022-09-11T21:06:38.339Z,15.40
2022-09-11T21:09:10.928Z,15.41
2022-09-11T21:11:42.225Z,15.41
2022-09-11T21:14:12.756Z,15.41
2022-09-11T21:16:41.022Z,15.39
2022-09-11T21:19:10.133Z,15.38
2022-09-11T21:21:40.045Z,15.35
2022-09-11T21:24:13.143Z,15.33
2022-09-11T21:26:42.424Z,15.30
2022-09-11T21:29:13.115Z,15.27
2022-09-11T21:31:43.483Z,15.26
2022-09-11T21:34:11.894Z,15.23
2022-09-11T21:36:40.307Z,15.20
2022-09-11T21:39:08.745Z,15.18
2022-09-11T21:41:37.039Z,15.16
2022-09-11T21:44:05.366Z,15.13
2022-09-11T21:46:35.518Z,15.11
2022-09-11T21:49:04.238Z,15.09
2022-09-11T21:51:32.515Z,15.06
2022-09-11T21:54:01.932Z,15.03
2022-09-11T21:56:33.512Z,15.01
2022-09-11T21:59:02.458Z,14.99
2022-09-11T22:01:31.974Z,14.97
2022-09-11T22:04:00.940Z,14.95
2022-09-11T22:06:30.574Z,14.94
2022-09-11T22:08:59.588Z,14.92
2022-09-11T22:11:27.997Z,14.92
2022-09-11T22:13:56.383Z,14.91
2022-09-11T22:16:24.880Z,14.91
2022-09-11T22:18:55.007Z,14.90
2022-09-11T22:21:23.654Z,14.91
2022-09-11T22:23:52.542Z,14.91
2022-09-11T22:26:23.875Z,14.91
2022-09-11T22:28:52.825Z,14.91
2022-09-11T22:31:24.266Z,14.91
2022-09-11T22:33:54.218Z,14.90
2022-09-11T22:36:29.343Z,14.87
2022-09-11T22:38:58.979Z,14.85
2022-09-11T22:41:27.497Z,14.84
2022-09-11T22:43:56.179Z,14.83
2022-09-11T22:46:26.727Z,14.83
2022-09-11T22:48:55.925Z,14.83
2022-09-11T22:51:24.279Z,14.84
2022-09-11T22:53:52.597Z,14.84
2022-09-11T22:56:21.949Z,14.85
2022-09-11T22:58:50.200Z,14.84
2022-09-11T23:01:22.445Z,14.82
2022-09-11T23:03:53.146Z,14.81
2022-09-11T23:06:40.651Z,14.79
2022-09-11T23:09:16.862Z,14.76
2022-09-11T23:11:46.282Z,14.74
2022-09-11T23:14:15.017Z,14.72
2022-09-11T23:16:43.963Z,14.69
2022-09-11T23:19:14.905Z,14.68
2022-09-11T23:21:43.439Z,14.67
2022-09-11T23:24:14.625Z,14.67
2022-09-11T23:26:45.241Z,14.67
2022-09-11T23:29:14.468Z,14.66
2022-09-11T23:31:44.303Z,14.64
2022-09-11T23:34:16.996Z,14.63
2022-09-11T23:36:45.373Z,14.60
2022-09-11T23:39:14.518Z,14.57
2022-09-11T23:41:42.773Z,14.53
2022-09-11T23:44:11.770Z,14.50
2022-09-11T23:46:40.067Z,14.46
2022-09-11T23:49:08.406Z,14.42
2022-09-11T23:51:36.698Z,14.38
2022-09-11T23:54:05.769Z,14.35
2022-09-11T23:56:34.274Z,14.30
2022-09-11T23:59:02.572Z,14.27
